Jinghe, China
Current Conditions -  °F | °C
As of 1:30 PM on Sunday 21 Dec 2014 (Local Time) from ZWWW Reporting Station
Smoke Smoke  
Wind Chill: 16°   Ceiling: Unl
Heat Index: 16°   Visibility: 1.8mi
Dew Point:   Wind: 2mph
Humidity: 62%   Direction: NA
Pressure: 30.33"   Gusts: NA
Location:  44.62°N, 82.9°E
Report Text: ZWWW 210530Z VRB01MPS 3000 FU NSC M09/M15 Q1027 NOSIG
Loading
Personal Weather Stations






























Interactive Weather Map New forecast layout! Learn more

10-Day Weather Forecast

Advertisements
Track Severe Weather on mobile